sensor_id;sensor_type;location;lat;lon;timestamp;temperature;humidity
23721;DHT22;42950;52.134;5.578;2023-02-28T00:01:20;2.20;99.90
23721;DHT22;42950;52.134;5.578;2023-02-28T00:03:46;2.20;99.90
23721;DHT22;42950;52.134;5.578;2023-02-28T00:06:11;2.20;99.90
23721;DHT22;42950;52.134;5.578;2023-02-28T00:08:38;2.30;99.90
23721;DHT22;42950;52.134;5.578;2023-02-28T00:11:07;2.30;99.90
23721;DHT22;42950;52.134;5.578;2023-02-28T00:13:34;2.30;99.90
23721;DHT22;42950;52.134;5.578;2023-02-28T00:16:06;2.40;99.90
23721;DHT22;42950;52.134;5.578;2023-02-28T00:18:33;2.30;99.90
23721;DHT22;42950;52.134;5.578;2023-02-28T00:20:59;2.30;99.90
23721;DHT22;42950;52.134;5.578;2023-02-28T00:23:25;2.30;99.90
23721;DHT22;42950;52.134;5.578;2023-02-28T00:25:51;2.40;99.90
23721;DHT22;42950;52.134;5.578;2023-02-28T00:28:18;2.40;99.90
23721;DHT22;42950;52.134;5.578;2023-02-28T00:30:44;2.50;99.90
23721;DHT22;42950;52.134;5.578;2023-02-28T00:33:10;2.50;99.90
23721;DHT22;42950;52.134;5.578;2023-02-28T00:35:36;2.50;99.90
23721;DHT22;42950;52.134;5.578;2023-02-28T00:38:01;2.60;99.90
23721;DHT22;42950;52.134;5.578;2023-02-28T00:40:28;2.60;99.90
23721;DHT22;42950;52.134;5.578;2023-02-28T00:42:54;2.60;99.90
23721;DHT22;42950;52.134;5.578;2023-02-28T00:45:19;2.60;99.90
23721;DHT22;42950;52.134;5.578;2023-02-28T00:47:46;2.70;99.90
23721;DHT22;42950;52.134;5.578;2023-02-28T00:50:18;2.80;99.90
23721;DHT22;42950;52.134;5.578;2023-02-28T00:52:44;2.80;99.90
23721;DHT22;42950;52.134;5.578;2023-02-28T00:55:10;2.80;99.90
23721;DHT22;42950;52.134;5.578;2023-02-28T00:57:36;2.90;99.90
23721;DHT22;42950;52.134;5.578;2023-02-28T01:00:02;2.90;99.90
23721;DHT22;42950;52.134;5.578;2023-02-28T01:02:29;2.90;99.90
23721;DHT22;42950;52.134;5.578;2023-02-28T01:04:54;2.90;99.90
23721;DHT22;42950;52.134;5.578;2023-02-28T01:07:20;3.00;99.90
23721;DHT22;42950;52.134;5.578;2023-02-28T01:09:46;3.00;99.90
23721;DHT22;42950;52.134;5.578;2023-02-28T01:12:12;3.00;99.90
23721;DHT22;42950;52.134;5.578;2023-02-28T01:14:38;3.00;99.90
23721;DHT22;42950;52.134;5.578;2023-02-28T01:17:03;3.00;99.90
23721;DHT22;42950;52.134;5.578;2023-02-28T01:19:29;3.00;99.90
23721;DHT22;42950;52.134;5.578;2023-02-28T01:21:56;3.00;99.90
23721;DHT22;42950;52.134;5.578;2023-02-28T01:24:21;3.10;99.90
23721;DHT22;42950;52.134;5.578;2023-02-28T01:26:47;3.10;99.90
23721;DHT22;42950;52.134;5.578;2023-02-28T01:29:12;3.10;99.90
23721;DHT22;42950;52.134;5.578;2023-02-28T01:31:38;3.10;99.90
23721;DHT22;42950;52.134;5.578;2023-02-28T01:34:03;3.10;99.90
23721;DHT22;42950;52.134;5.578;2023-02-28T01:36:29;3.10;99.90
23721;DHT22;42950;52.134;5.578;2023-02-28T01:38:55;3.10;99.90
23721;DHT22;42950;52.134;5.578;2023-02-28T01:41:29;3.20;99.90
23721;DHT22;42950;52.134;5.578;2023-02-28T01:44:06;3.20;99.90
23721;DHT22;42950;52.134;5.578;2023-02-28T01:46:34;3.20;99.90
23721;DHT22;42950;52.134;5.578;2023-02-28T01:49:12;3.20;99.90
23721;DHT22;42950;52.134;5.578;2023-02-28T01:51:45;3.20;99.90
23721;DHT22;42950;52.134;5.578;2023-02-28T01:54:28;3.30;99.90
23721;DHT22;42950;52.134;5.578;2023-02-28T01:57:07;3.30;99.90
23721;DHT22;42950;52.134;5.578;2023-02-28T02:02:12;3.30;99.90
23721;DHT22;42950;52.134;5.578;2023-02-28T02:05:04;3.30;99.90
23721;DHT22;42950;52.134;5.578;2023-02-28T02:07:40;3.30;99.90
23721;DHT22;42950;52.134;5.578;2023-02-28T02:10:26;3.30;99.90
23721;DHT22;42950;52.134;5.578;2023-02-28T02:15:31;3.30;99.90
23721;DHT22;42950;52.134;5.578;2023-02-28T02:18:46;3.30;99.90
23721;DHT22;42950;52.134;5.578;2023-02-28T02:26:46;3.40;99.90
23721;DHT22;42950;52.134;5.578;2023-02-28T02:37:50;3.30;99.90
23721;DHT22;42950;52.134;5.578;2023-02-28T02:40:32;3.40;99.90
23721;DHT22;42950;52.134;5.578;2023-02-28T02:43:15;3.40;99.90
23721;DHT22;42950;52.134;5.578;2023-02-28T02:45:52;3.40;99.90
23721;DHT22;42950;52.134;5.578;2023-02-28T02:48:21;3.40;99.90
23721;DHT22;42950;52.134;5.578;2023-02-28T02:50:55;3.50;99.90
23721;DHT22;42950;52.134;5.578;2023-02-28T02:53:35;3.50;99.90
23721;DHT22;42950;52.134;5.578;2023-02-28T02:56:03;3.60;99.90
23721;DHT22;42950;52.134;5.578;2023-02-28T02:58:37;3.60;99.90
23721;DHT22;42950;52.134;5.578;2023-02-28T03:01:08;3.50;99.90
23721;DHT22;42950;52.134;5.578;2023-02-28T03:03:36;3.60;99.90
23721;DHT22;42950;52.134;5.578;2023-02-28T03:06:02;3.50;99.90
23721;DHT22;42950;52.134;5.578;2023-02-28T03:08:33;3.50;99.90
23721;DHT22;42950;52.134;5.578;2023-02-28T03:11:01;3.50;99.90
23721;DHT22;42950;52.134;5.578;2023-02-28T03:13:54;3.50;99.90
23721;DHT22;42950;52.134;5.578;2023-02-28T03:18:54;3.50;99.90
23721;DHT22;42950;52.134;5.578;2023-02-28T03:21:28;3.50;99.90
23721;DHT22;42950;52.134;5.578;2023-02-28T03:24:06;3.60;99.90
23721;DHT22;42950;52.134;5.578;2023-02-28T03:26:39;3.60;99.90
23721;DHT22;42950;52.134;5.578;2023-02-28T03:31:59;3.60;99.90
23721;DHT22;42950;52.134;5.578;2023-02-28T03:34:38;3.50;99.90
23721;DHT22;42950;52.134;5.578;2023-02-28T03:37:11;3.50;99.90
23721;DHT22;42950;52.134;5.578;2023-02-28T03:39:49;3.50;99.90
23721;DHT22;42950;52.134;5.578;2023-02-28T03:42:22;3.50;99.90
23721;DHT22;42950;52.134;5.578;2023-02-28T03:45:00;3.50;99.90
23721;DHT22;42950;52.134;5.578;2023-02-28T03:50:14;3.40;99.90
23721;DHT22;42950;52.134;5.578;2023-02-28T03:53:08;3.40;99.90
23721;DHT22;42950;52.134;5.578;2023-02-28T03:55:44;3.40;99.90
23721;DHT22;42950;52.134;5.578;2023-02-28T03:58:22;3.30;99.90
23721;DHT22;42950;52.134;5.578;2023-02-28T04:00:57;3.30;99.90
23721;DHT22;42950;52.134;5.578;2023-02-28T04:03:23;3.30;99.90
23721;DHT22;42950;52.134;5.578;2023-02-28T04:05:54;3.30;99.90
23721;DHT22;42950;52.134;5.578;2023-02-28T04:08:21;3.20;99.90
23721;DHT22;42950;52.134;5.578;2023-02-28T04:10:56;3.20;99.90
23721;DHT22;42950;52.134;5.578;2023-02-28T04:13:23;3.20;99.90
23721;DHT22;42950;52.134;5.578;2023-02-28T04:15:48;3.20;99.90
23721;DHT22;42950;52.134;5.578;2023-02-28T04:18:15;3.20;99.90
23721;DHT22;42950;52.134;5.578;2023-02-28T04:20:41;3.10;99.90
23721;DHT22;42950;52.134;5.578;2023-02-28T04:23:06;3.10;99.90
23721;DHT22;42950;52.134;5.578;2023-02-28T04:25:32;3.10;99.90
23721;DHT22;42950;52.134;5.578;2023-02-28T04:28:00;3.10;99.90
23721;DHT22;42950;52.134;5.578;2023-02-28T04:30:25;3.00;99.90
23721;DHT22;42950;52.134;5.578;2023-02-28T04:32:52;3.10;99.90
23721;DHT22;42950;52.134;5.578;2023-02-28T04:35:17;3.10;99.90
23721;DHT22;42950;52.134;5.578;2023-02-28T04:37:43;3.00;99.90
23721;DHT22;42950;52.134;5.578;2023-02-28T04:40:09;3.00;99.90
23721;DHT22;42950;52.134;5.578;2023-02-28T04:42:35;2.90;99.90
23721;DHT22;42950;52.134;5.578;2023-02-28T04:45:04;3.00;99.90
23721;DHT22;42950;52.134;5.578;2023-02-28T04:47:31;2.90;99.90
23721;DHT22;42950;52.134;5.578;2023-02-28T04:49:56;2.80;99.90
23721;DHT22;42950;52.134;5.578;2023-02-28T04:52:22;2.90;99.90
23721;DHT22;42950;52.134;5.578;2023-02-28T04:54:48;2.90;99.90
23721;DHT22;42950;52.134;5.578;2023-02-28T04:57:14;2.90;99.90
23721;DHT22;42950;52.134;5.578;2023-02-28T04:59:40;2.90;99.90
23721;DHT22;42950;52.134;5.578;2023-02-28T05:02:05;2.80;99.90
23721;DHT22;42950;52.134;5.578;2023-02-28T05:04:34;2.90;99.90
23721;DHT22;42950;52.134;5.578;2023-02-28T05:07:01;2.90;99.90
23721;DHT22;42950;52.134;5.578;2023-02-28T05:09:27;2.90;99.90
23721;DHT22;42950;52.134;5.578;2023-02-28T05:11:54;2.90;99.90
23721;DHT22;42950;52.134;5.578;2023-02-28T05:14:21;2.80;99.90
23721;DHT22;42950;52.134;5.578;2023-02-28T05:16:46;2.80;99.90
23721;DHT22;42950;52.134;5.578;2023-02-28T05:19:12;2.90;99.90
23721;DHT22;42950;52.134;5.578;2023-02-28T05:21:41;2.90;99.90
23721;DHT22;42950;52.134;5.578;2023-02-28T05:24:13;2.90;99.90
23721;DHT22;42950;52.134;5.578;2023-02-28T05:26:42;2.90;99.90
23721;DHT22;42950;52.134;5.578;2023-02-28T05:29:08;2.80;99.90
23721;DHT22;42950;52.134;5.578;2023-02-28T05:31:36;2.80;99.90
23721;DHT22;42950;52.134;5.578;2023-02-28T05:34:02;2.90;99.90
23721;DHT22;42950;52.134;5.578;2023-02-28T05:36:29;2.90;99.90
23721;DHT22;42950;52.134;5.578;2023-02-28T05:38:55;2.90;99.90
23721;DHT22;42950;52.134;5.578;2023-02-28T05:41:23;2.90;99.90
23721;DHT22;42950;52.134;5.578;2023-02-28T05:43:49;2.80;99.90
23721;DHT22;42950;52.134;5.578;2023-02-28T05:46:16;2.90;99.90
23721;DHT22;42950;52.134;5.578;2023-02-28T05:48:42;2.90;99.90
23721;DHT22;42950;52.134;5.578;2023-02-28T05:51:11;2.90;99.90
23721;DHT22;42950;52.134;5.578;2023-02-28T05:53:38;2.90;99.90
23721;DHT22;42950;52.134;5.578;2023-02-28T05:56:04;2.90;99.90
23721;DHT22;42950;52.134;5.578;2023-02-28T05:58:30;2.80;99.90
23721;DHT22;42950;52.134;5.578;2023-02-28T06:00:57;2.80;99.90
23721;DHT22;42950;52.134;5.578;2023-02-28T06:03:24;2.80;99.90
23721;DHT22;42950;52.134;5.578;2023-02-28T06:05:50;2.70;99.90
23721;DHT22;42950;52.134;5.578;2023-02-28T06:08:16;2.70;99.90
23721;DHT22;42950;52.134;5.578;2023-02-28T06:10:42;2.70;99.90
23721;DHT22;42950;52.134;5.578;2023-02-28T06:13:07;2.60;99.90
23721;DHT22;42950;52.134;5.578;2023-02-28T06:15:33;2.60;99.90
23721;DHT22;42950;52.134;5.578;2023-02-28T06:17:59;2.50;99.90
23721;DHT22;42950;52.134;5.578;2023-02-28T06:20:26;2.40;99.90
23721;DHT22;42950;52.134;5.578;2023-02-28T06:22:55;2.40;99.90
23721;DHT22;42950;52.134;5.578;2023-02-28T06:25:25;2.30;99.90
23721;DHT22;42950;52.134;5.578;2023-02-28T06:27:50;2.40;99.90
23721;DHT22;42950;52.134;5.578;2023-02-28T06:30:16;2.40;99.90
23721;DHT22;42950;52.134;5.578;2023-02-28T06:32:42;2.50;99.90
23721;DHT22;42950;52.134;5.578;2023-02-28T06:35:07;2.30;99.90
23721;DHT22;42950;52.134;5.578;2023-02-28T06:37:34;2.20;99.90
23721;DHT22;42950;52.134;5.578;2023-02-28T06:40:00;2.30;99.90
23721;DHT22;42950;52.134;5.578;2023-02-28T06:42:25;2.30;99.90
23721;DHT22;42950;52.134;5.578;2023-02-28T06:44:57;2.40;99.90
23721;DHT22;42950;52.134;5.578;2023-02-28T06:47:22;2.50;99.90
23721;DHT22;42950;52.134;5.578;2023-02-28T06:49:49;2.50;99.90
23721;DHT22;42950;52.134;5.578;2023-02-28T06:52:14;2.50;99.90
23721;DHT22;42950;52.134;5.578;2023-02-28T06:54:40;2.70;99.90
23721;DHT22;42950;52.134;5.578;2023-02-28T06:57:06;2.70;99.90
23721;DHT22;42950;52.134;5.578;2023-02-28T06:59:32;2.70;99.90
23721;DHT22;42950;52.134;5.578;2023-02-28T07:01:57;2.70;99.90
23721;DHT22;42950;52.134;5.578;2023-02-28T07:04:23;2.70;99.90
23721;DHT22;42950;52.134;5.578;2023-02-28T07:06:49;2.70;99.90
23721;DHT22;42950;52.134;5.578;2023-02-28T07:09:15;2.60;99.90
23721;DHT22;42950;52.134;5.578;2023-02-28T07:11:41;2.60;99.90
23721;DHT22;42950;52.134;5.578;2023-02-28T07:14:08;2.70;99.90
23721;DHT22;42950;52.134;5.578;2023-02-28T07:16:34;2.80;99.90
23721;DHT22;42950;52.134;5.578;2023-02-28T07:19:00;2.70;99.90
23721;DHT22;42950;52.134;5.578;2023-02-28T07:21:26;2.70;99.90
23721;DHT22;42950;52.134;5.578;2023-02-28T07:23:51;2.70;99.90
23721;DHT22;42950;52.134;5.578;2023-02-28T07:26:19;2.70;99.90
23721;DHT22;42950;52.134;5.578;2023-02-28T07:28:46;2.70;99.90
23721;DHT22;42950;52.134;5.578;2023-02-28T07:31:13;2.60;99.90
23721;DHT22;42950;52.134;5.578;2023-02-28T07:33:42;2.70;99.90
23721;DHT22;42950;52.134;5.578;2023-02-28T07:36:17;2.70;99.90
23721;DHT22;42950;52.134;5.578;2023-02-28T07:38:47;2.80;99.90
23721;DHT22;42950;52.134;5.578;2023-02-28T07:41:17;2.90;99.90
23721;DHT22;42950;52.134;5.578;2023-02-28T07:43:43;2.90;99.90
23721;DHT22;42950;52.134;5.578;2023-02-28T07:46:12;2.90;99.90
23721;DHT22;42950;52.134;5.578;2023-02-28T07:48:40;3.00;99.90
23721;DHT22;42950;52.134;5.578;2023-02-28T07:51:06;3.00;99.90
23721;DHT22;42950;52.134;5.578;2023-02-28T07:53:31;3.10;99.90
23721;DHT22;42950;52.134;5.578;2023-02-28T07:55:59;3.20;99.90
23721;DHT22;42950;52.134;5.578;2023-02-28T07:58:25;3.20;99.90
23721;DHT22;42950;52.134;5.578;2023-02-28T08:00:51;3.20;99.90
23721;DHT22;42950;52.134;5.578;2023-02-28T08:03:21;3.30;99.90
23721;DHT22;42950;52.134;5.578;2023-02-28T08:05:47;3.30;99.90
23721;DHT22;42950;52.134;5.578;2023-02-28T08:08:14;3.40;99.90
23721;DHT22;42950;52.134;5.578;2023-02-28T08:10:40;3.40;99.90
23721;DHT22;42950;52.134;5.578;2023-02-28T08:13:06;3.40;99.90
23721;DHT22;42950;52.134;5.578;2023-02-28T08:15:31;3.40;99.90
23721;DHT22;42950;52.134;5.578;2023-02-28T08:17:57;3.50;99.90
23721;DHT22;42950;52.134;5.578;2023-02-28T08:20:24;3.50;99.90
23721;DHT22;42950;52.134;5.578;2023-02-28T08:22:49;3.60;99.90
23721;DHT22;42950;52.134;5.578;2023-02-28T08:25:15;3.60;99.90
23721;DHT22;42950;52.134;5.578;2023-02-28T08:27:40;3.60;99.90
23721;DHT22;42950;52.134;5.578;2023-02-28T08:30:06;3.70;99.90
23721;DHT22;42950;52.134;5.578;2023-02-28T08:32:33;3.70;99.90
23721;DHT22;42950;52.134;5.578;2023-02-28T08:34:59;3.70;99.90
23721;DHT22;42950;52.134;5.578;2023-02-28T08:37:25;3.80;99.90
23721;DHT22;42950;52.134;5.578;2023-02-28T08:39:50;3.90;99.90
23721;DHT22;42950;52.134;5.578;2023-02-28T08:42:16;3.90;99.90
23721;DHT22;42950;52.134;5.578;2023-02-28T08:44:42;3.90;99.90
23721;DHT22;42950;52.134;5.578;2023-02-28T08:47:08;4.00;99.90
23721;DHT22;42950;52.134;5.578;2023-02-28T08:49:33;4.10;99.90
23721;DHT22;42950;52.134;5.578;2023-02-28T08:51:59;4.10;99.90
23721;DHT22;42950;52.134;5.578;2023-02-28T08:54:24;4.30;99.90
23721;DHT22;42950;52.134;5.578;2023-02-28T08:56:50;4.50;99.90
23721;DHT22;42950;52.134;5.578;2023-02-28T08:59:16;4.70;99.90
23721;DHT22;42950;52.134;5.578;2023-02-28T09:01:41;4.70;99.90
23721;DHT22;42950;52.134;5.578;2023-02-28T09:04:09;4.90;99.90
23721;DHT22;42950;52.134;5.578;2023-02-28T09:06:36;4.90;99.90
23721;DHT22;42950;52.134;5.578;2023-02-28T09:09:01;4.80;99.90
23721;DHT22;42950;52.134;5.578;2023-02-28T09:11:28;4.80;99.90
23721;DHT22;42950;52.134;5.578;2023-02-28T09:13:54;4.90;99.90
23721;DHT22;42950;52.134;5.578;2023-02-28T09:16:21;4.90;99.90
23721;DHT22;42950;52.134;5.578;2023-02-28T09:18:47;4.90;99.90
23721;DHT22;42950;52.134;5.578;2023-02-28T09:21:15;4.90;99.90
23721;DHT22;42950;52.134;5.578;2023-02-28T09:23:42;5.00;99.90
23721;DHT22;42950;52.134;5.578;2023-02-28T09:26:12;5.10;99.90
23721;DHT22;42950;52.134;5.578;2023-02-28T09:28:38;5.20;99.90
23721;DHT22;42950;52.134;5.578;2023-02-28T09:31:03;5.20;99.90
23721;DHT22;42950;52.134;5.578;2023-02-28T09:33:30;5.30;99.90
23721;DHT22;42950;52.134;5.578;2023-02-28T09:36:00;5.20;99.90
23721;DHT22;42950;52.134;5.578;2023-02-28T09:38:26;5.40;99.90
23721;DHT22;42950;52.134;5.578;2023-02-28T09:40:56;5.50;99.90
23721;DHT22;42950;52.134;5.578;2023-02-28T09:43:25;5.60;99.90
23721;DHT22;42950;52.134;5.578;2023-02-28T09:46:12;5.70;99.90
23721;DHT22;42950;52.134;5.578;2023-02-28T09:48:42;5.90;99.90
23721;DHT22;42950;52.134;5.578;2023-02-28T09:53:49;6.20;99.90
23721;DHT22;42950;52.134;5.578;2023-02-28T09:56:27;6.40;99.90
23721;DHT22;42950;52.134;5.578;2023-02-28T10:02:16;6.50;99.90
23721;DHT22;42950;52.134;5.578;2023-02-28T10:05:09;6.60;99.90
23721;DHT22;42950;52.134;5.578;2023-02-28T10:08:00;6.60;99.90
23721;DHT22;42950;52.134;5.578;2023-02-28T10:10:37;6.50;99.90
23721;DHT22;42950;52.134;5.578;2023-02-28T10:13:52;6.60;99.90
23721;DHT22;42950;52.134;5.578;2023-02-28T10:15:57;6.50;99.90
23721;DHT22;42950;52.134;5.578;2023-02-28T10:18:28;6.50;99.90
23721;DHT22;42950;52.134;5.578;2023-02-28T10:20:56;6.60;99.90
23721;DHT22;42950;52.134;5.578;2023-02-28T10:23:48;6.70;99.90
23721;DHT22;42950;52.134;5.578;2023-02-28T10:26:16;7.00;99.90
23721;DHT22;42950;52.134;5.578;2023-02-28T10:28:42;7.10;99.90
23721;DHT22;42950;52.134;5.578;2023-02-28T10:31:13;7.10;99.90
23721;DHT22;42950;52.134;5.578;2023-02-28T10:33:41;7.20;99.90
23721;DHT22;42950;52.134;5.578;2023-02-28T10:36:17;7.20;99.90
23721;DHT22;42950;52.134;5.578;2023-02-28T10:38:45;7.20;99.90
23721;DHT22;42950;52.134;5.578;2023-02-28T10:41:14;7.30;99.90
23721;DHT22;42950;52.134;5.578;2023-02-28T10:43:41;7.30;99.90
23721;DHT22;42950;52.134;5.578;2023-02-28T10:46:11;7.30;99.90
23721;DHT22;42950;52.134;5.578;2023-02-28T10:48:57;7.30;99.90
23721;DHT22;42950;52.134;5.578;2023-02-28T10:51:37;7.40;99.90
23721;DHT22;42950;52.134;5.578;2023-02-28T10:54:04;7.60;99.90
23721;DHT22;42950;52.134;5.578;2023-02-28T10:56:30;7.60;99.90
23721;DHT22;42950;52.134;5.578;2023-02-28T11:01:47;7.80;99.90
23721;DHT22;42950;52.134;5.578;2023-02-28T11:06:46;7.70;99.90
23721;DHT22;42950;52.134;5.578;2023-02-28T11:09:30;7.90;99.90
23721;DHT22;42950;52.134;5.578;2023-02-28T11:11:56;8.00;99.90
23721;DHT22;42950;52.134;5.578;2023-02-28T11:14:30;8.00;99.90
23721;DHT22;42950;52.134;5.578;2023-02-28T11:17:03;8.10;99.90
23721;DHT22;42950;52.134;5.578;2023-02-28T11:19:44;8.20;99.90
23721;DHT22;42950;52.134;5.578;2023-02-28T11:22:11;8.10;99.90
23721;DHT22;42950;52.134;5.578;2023-02-28T11:24:45;8.10;99.90
23721;DHT22;42950;52.134;5.578;2023-02-28T11:27:46;8.20;99.90
23721;DHT22;42950;52.134;5.578;2023-02-28T11:30:34;8.30;99.90
23721;DHT22;42950;52.134;5.578;2023-02-28T11:33:01;8.30;99.90
23721;DHT22;42950;52.134;5.578;2023-02-28T11:35:38;8.30;99.90
23721;DHT22;42950;52.134;5.578;2023-02-28T11:38:09;8.30;99.90
23721;DHT22;42950;52.134;5.578;2023-02-28T11:51:27;8.40;99.90
23721;DHT22;42950;52.134;5.578;2023-02-28T11:56:58;8.50;99.90
23721;DHT22;42950;52.134;5.578;2023-02-28T12:02:24;8.60;99.90
23721;DHT22;42950;52.134;5.578;2023-02-28T12:05:09;8.70;99.90
23721;DHT22;42950;52.134;5.578;2023-02-28T12:08:00;8.70;99.90
23721;DHT22;42950;52.134;5.578;2023-02-28T12:10:30;8.70;99.90
23721;DHT22;42950;52.134;5.578;2023-02-28T12:18:26;8.90;99.90
23721;DHT22;42950;52.134;5.578;2023-02-28T12:26:16;9.10;99.90
23721;DHT22;42950;52.134;5.578;2023-02-28T12:28:54;9.00;99.90
23721;DHT22;42950;52.134;5.578;2023-02-28T12:31:27;9.00;99.90
23721;DHT22;42950;52.134;5.578;2023-02-28T12:33:59;9.00;99.90
23721;DHT22;42950;52.134;5.578;2023-02-28T12:36:27;9.10;99.90
23721;DHT22;42950;52.134;5.578;2023-02-28T12:38:55;9.20;99.90
23721;DHT22;42950;52.134;5.578;2023-02-28T12:41:45;9.20;99.90
23721;DHT22;42950;52.134;5.578;2023-02-28T12:44:20;9.10;99.90
23721;DHT22;42950;52.134;5.578;2023-02-28T12:46:51;9.10;99.90
23721;DHT22;42950;52.134;5.578;2023-02-28T12:49:49;9.20;99.90
23721;DHT22;42950;52.134;5.578;2023-02-28T12:52:19;9.10;99.90
23721;DHT22;42950;52.134;5.578;2023-02-28T12:55:56;9.10;99.90
23721;DHT22;42950;52.134;5.578;2023-02-28T12:58:14;9.00;99.90
23721;DHT22;42950;52.134;5.578;2023-02-28T13:09:13;9.10;99.90
23721;DHT22;42950;52.134;5.578;2023-02-28T13:11:53;9.20;99.90
23721;DHT22;42950;52.134;5.578;2023-02-28T13:14:37;9.30;99.90
23721;DHT22;42950;52.134;5.578;2023-02-28T13:22:43;9.20;99.90
23721;DHT22;42950;52.134;5.578;2023-02-28T13:28:01;8.70;99.90
23721;DHT22;42950;52.134;5.578;2023-02-28T13:35:46;9.00;99.90
23721;DHT22;42950;52.134;5.578;2023-02-28T13:38:17;8.80;99.90
23721;DHT22;42950;52.134;5.578;2023-02-28T13:40:46;8.60;99.90
23721;DHT22;42950;52.134;5.578;2023-02-28T13:43:16;8.70;99.90
23721;DHT22;42950;52.134;5.578;2023-02-28T13:46:04;8.80;99.90
23721;DHT22;42950;52.134;5.578;2023-02-28T13:48:30;9.10;99.90
23721;DHT22;42950;52.134;5.578;2023-02-28T13:50:55;9.20;99.90
23721;DHT22;42950;52.134;5.578;2023-02-28T13:53:37;9.30;99.90
23721;DHT22;42950;52.134;5.578;2023-02-28T13:56:22;9.30;99.90
23721;DHT22;42950;52.134;5.578;2023-02-28T13:59:20;9.40;99.90
23721;DHT22;42950;52.134;5.578;2023-02-28T14:04:48;9.50;99.90
23721;DHT22;42950;52.134;5.578;2023-02-28T14:07:24;9.60;99.90
23721;DHT22;42950;52.134;5.578;2023-02-28T14:09:58;9.80;99.90
23721;DHT22;42950;52.134;5.578;2023-02-28T14:18:31;9.80;99.90
23721;DHT22;42950;52.134;5.578;2023-02-28T14:21:08;9.80;99.90
23721;DHT22;42950;52.134;5.578;2023-02-28T14:29:36;9.60;99.90
23721;DHT22;42950;52.134;5.578;2023-02-28T14:32:10;9.60;99.90
23721;DHT22;42950;52.134;5.578;2023-02-28T14:37:32;9.70;99.90
23721;DHT22;42950;52.134;5.578;2023-02-28T14:39:59;9.80;99.90
23721;DHT22;42950;52.134;5.578;2023-02-28T14:42:58;9.80;99.90
23721;DHT22;42950;52.134;5.578;2023-02-28T14:45:27;9.70;99.90
23721;DHT22;42950;52.134;5.578;2023-02-28T14:47:54;9.70;99.90
23721;DHT22;42950;52.134;5.578;2023-02-28T14:50:30;9.70;99.90
23721;DHT22;42950;52.134;5.578;2023-02-28T14:52:56;9.70;99.90
23721;DHT22;42950;52.134;5.578;2023-02-28T14:55:29;9.60;99.90
23721;DHT22;42950;52.134;5.578;2023-02-28T14:57:57;9.70;99.90
23721;DHT22;42950;52.134;5.578;2023-02-28T15:00:35;9.80;99.90
23721;DHT22;42950;52.134;5.578;2023-02-28T15:03:21;9.80;99.90
23721;DHT22;42950;52.134;5.578;2023-02-28T15:05:58;9.90;99.90
23721;DHT22;42950;52.134;5.578;2023-02-28T15:08:24;9.80;99.90
23721;DHT22;42950;52.134;5.578;2023-02-28T15:13:19;9.50;99.90
23721;DHT22;42950;52.134;5.578;2023-02-28T15:15:50;9.30;99.90
23721;DHT22;42950;52.134;5.578;2023-02-28T15:20:56;9.20;99.90
23721;DHT22;42950;52.134;5.578;2023-02-28T15:23:23;9.10;99.90
23721;DHT22;42950;52.134;5.578;2023-02-28T15:25:49;9.00;99.90
23721;DHT22;42950;52.134;5.578;2023-02-28T15:28:19;8.90;99.90
23721;DHT22;42950;52.134;5.578;2023-02-28T15:31:03;8.80;99.90
23721;DHT22;42950;52.134;5.578;2023-02-28T15:33:52;8.80;99.90
23721;DHT22;42950;52.134;5.578;2023-02-28T15:36:19;8.70;99.90
23721;DHT22;42950;52.134;5.578;2023-02-28T15:38:51;8.60;99.90
23721;DHT22;42950;52.134;5.578;2023-02-28T15:41:31;8.60;99.90
23721;DHT22;42950;52.134;5.578;2023-02-28T15:47:17;8.60;99.90
23721;DHT22;42950;52.134;5.578;2023-02-28T15:49:57;8.60;99.90
23721;DHT22;42950;52.134;5.578;2023-02-28T15:52:38;8.60;99.90
23721;DHT22;42950;52.134;5.578;2023-02-28T15:55:10;8.60;99.90
23721;DHT22;42950;52.134;5.578;2023-02-28T15:57:39;8.50;99.90
23721;DHT22;42950;52.134;5.578;2023-02-28T16:00:11;8.50;99.90
23721;DHT22;42950;52.134;5.578;2023-02-28T16:02:38;8.40;99.90
23721;DHT22;42950;52.134;5.578;2023-02-28T16:07:37;8.20;99.90
23721;DHT22;42950;52.134;5.578;2023-02-28T16:10:05;8.20;99.90
23721;DHT22;42950;52.134;5.578;2023-02-28T16:12:36;8.10;99.90
23721;DHT22;42950;52.134;5.578;2023-02-28T16:15:07;8.00;99.90
23721;DHT22;42950;52.134;5.578;2023-02-28T16:17:35;8.00;99.90
23721;DHT22;42950;52.134;5.578;2023-02-28T16:20:28;7.90;99.90
23721;DHT22;42950;52.134;5.578;2023-02-28T16:22:52;7.90;99.90
23721;DHT22;42950;52.134;5.578;2023-02-28T16:25:20;7.90;99.90
23721;DHT22;42950;52.134;5.578;2023-02-28T16:27:50;7.90;99.90
23721;DHT22;42950;52.134;5.578;2023-02-28T16:30:25;7.60;99.90
23721;DHT22;42950;52.134;5.578;2023-02-28T16:32:53;7.50;99.90
23721;DHT22;42950;52.134;5.578;2023-02-28T16:35:19;7.40;99.90
23721;DHT22;42950;52.134;5.578;2023-02-28T16:37:45;7.40;99.90
23721;DHT22;42950;52.134;5.578;2023-02-28T16:40:16;7.30;99.90
23721;DHT22;42950;52.134;5.578;2023-02-28T16:42:43;7.20;99.90
23721;DHT22;42950;52.134;5.578;2023-02-28T16:45:17;7.20;99.90
23721;DHT22;42950;52.134;5.578;2023-02-28T16:47:45;7.10;99.90
23721;DHT22;42950;52.134;5.578;2023-02-28T16:50:20;7.00;99.90
23721;DHT22;42950;52.134;5.578;2023-02-28T16:52:47;6.90;99.90
23721;DHT22;42950;52.134;5.578;2023-02-28T16:55:15;6.90;99.90
23721;DHT22;42950;52.134;5.578;2023-02-28T16:57:41;6.80;99.90
23721;DHT22;42950;52.134;5.578;2023-02-28T17:00:08;6.70;99.90
23721;DHT22;42950;52.134;5.578;2023-02-28T17:02:36;6.70;99.90
23721;DHT22;42950;52.134;5.578;2023-02-28T17:05:01;6.60;99.90
23721;DHT22;42950;52.134;5.578;2023-02-28T17:07:27;6.70;99.90
23721;DHT22;42950;52.134;5.578;2023-02-28T17:09:53;6.60;99.90
23721;DHT22;42950;52.134;5.578;2023-02-28T17:12:18;6.50;99.90
23721;DHT22;42950;52.134;5.578;2023-02-28T17:14:44;6.50;99.90
23721;DHT22;42950;52.134;5.578;2023-02-28T17:17:21;6.50;99.90
23721;DHT22;42950;52.134;5.578;2023-02-28T17:19:47;6.40;99.90
23721;DHT22;42950;52.134;5.578;2023-02-28T17:22:12;6.40;99.90
23721;DHT22;42950;52.134;5.578;2023-02-28T17:24:38;6.30;99.90
23721;DHT22;42950;52.134;5.578;2023-02-28T17:27:04;6.20;99.90
23721;DHT22;42950;52.134;5.578;2023-02-28T17:29:29;6.20;99.90
23721;DHT22;42950;52.134;5.578;2023-02-28T17:31:55;6.20;99.90
23721;DHT22;42950;52.134;5.578;2023-02-28T17:34:21;6.00;99.90
23721;DHT22;42950;52.134;5.578;2023-02-28T17:36:49;5.90;99.90
23721;DHT22;42950;52.134;5.578;2023-02-28T17:39:15;5.80;99.90
23721;DHT22;42950;52.134;5.578;2023-02-28T17:41:45;5.80;99.90
23721;DHT22;42950;52.134;5.578;2023-02-28T17:44:10;5.80;99.90
23721;DHT22;42950;52.134;5.578;2023-02-28T17:46:36;5.80;99.90
23721;DHT22;42950;52.134;5.578;2023-02-28T17:49:02;5.70;99.90
23721;DHT22;42950;52.134;5.578;2023-02-28T17:51:27;5.70;99.90
23721;DHT22;42950;52.134;5.578;2023-02-28T17:53:53;5.60;99.90
23721;DHT22;42950;52.134;5.578;2023-02-28T17:56:21;5.50;99.90
23721;DHT22;42950;52.134;5.578;2023-02-28T17:58:48;5.50;99.90
23721;DHT22;42950;52.134;5.578;2023-02-28T18:01:14;5.40;99.90